Time,TemperatureF,DewpointF,PressureIn,WindDirection,WindDirectionDegrees,WindSpeedMPH,WindSpeedGustMPH,Humidity,HourlyPrecipIn,Conditions,Clouds,dailyrainin,SoftwareType,DateUTC
2013-05-11 00:02:00,36.0,-99.9,-100.00,NNE,25,6.0,9.0,-999,-99.99,,,-99.99,,2013-05-11 06:02:00,
2013-05-11 00:12:00,36.0,-99.9,-100.00,NNE,25,6.0,9.0,-999,-99.99,,,-99.99,,2013-05-11 06:12:00,
2013-05-11 00:22:00,38.0,-99.9,-100.00,NNE,25,7.0,9.0,-999,-99.99,,,-99.99,,2013-05-11 06:22:00,
2013-05-11 00:32:00,36.0,-99.9,-100.00,NNE,27,4.0,7.0,-999,-99.99,,,-99.99,,2013-05-11 06:32:00,
2013-05-11 00:42:00,36.0,-99.9,-100.00,NNE,27,4.0,7.0,-999,-99.99,,,-99.99,,2013-05-11 06:42:00,
2013-05-11 00:53:00,34.0,-99.9,-100.00,NE,35,0.0,4.0,-999,-99.99,,,-99.99,,2013-05-11 06:53:00,
2013-05-11 01:02:00,33.0,-99.9,-100.00,SE,137,1.0,2.0,-999,-99.99,,,-99.99,,2013-05-11 07:02:00,
2013-05-11 01:12:00,33.0,-99.9,-100.00,SE,137,1.0,2.0,-999,-99.99,,,-99.99,,2013-05-11 07:12:00,
2013-05-11 01:22:00,35.0,-99.9,-100.00,ESE,103,4.0,7.0,-999,-99.99,,,-99.99,,2013-05-11 07:22:00,
2013-05-11 01:32:00,35.0,-99.9,-100.00,NE,41,9.0,14.0,-999,-99.99,,,-99.99,,2013-05-11 07:32:00,
2013-05-11 01:42:00,35.0,-99.9,-100.00,NE,41,9.0,14.0,-999,-99.99,,,-99.99,,2013-05-11 07:42:00,
2013-05-11 01:52:00,35.0,-99.9,-100.00,NNE,32,9.0,14.0,-999,-99.99,,,-99.99,,2013-05-11 07:52:00,
2013-05-11 02:02:00,34.0,-99.9,-100.00,NE,43,10.0,12.0,-999,-99.99,,,-99.99,,2013-05-11 08:02:00,
2013-05-11 02:12:00,34.0,-99.9,-100.00,NE,43,10.0,12.0,-999,-99.99,,,-99.99,,2013-05-11 08:12:00,
2013-05-11 02:22:00,35.0,-99.9,-100.00,NE,40,9.0,14.0,-999,-99.99,,,-99.99,,2013-05-11 08:22:00,
2013-05-11 02:32:00,34.0,-99.9,-100.00,NNE,29,5.0,11.0,-999,-99.99,,,-99.99,,2013-05-11 08:32:00,
2013-05-11 02:43:00,34.0,-99.9,-100.00,NNE,29,5.0,11.0,-999,-99.99,,,-99.99,,2013-05-11 08:43:00,
2013-05-11 02:52:00,35.0,-99.9,-100.00,NNE,24,4.0,7.0,-999,-99.99,,,-99.99,,2013-05-11 08:52:00,
2013-05-11 03:01:00,35.0,-99.9,-100.00,NNE,24,5.0,9.0,-999,-99.99,,,-99.99,,2013-05-11 09:01:00,
2013-05-11 03:12:00,35.0,-99.9,-100.00,NNE,24,5.0,9.0,-999,-99.99,,,-99.99,,2013-05-11 09:12:00,
2013-05-11 03:22:00,35.0,-99.9,-100.00,NNE,16,7.0,9.0,-999,-99.99,,,-99.99,,2013-05-11 09:22:00,
2013-05-11 03:33:00,35.0,-99.9,-100.00,NE,39,4.0,7.0,-999,-99.99,,,-99.99,,2013-05-11 09:33:00,
2013-05-11 03:43:00,35.0,-99.9,-100.00,NE,39,4.0,7.0,-999,-99.99,,,-99.99,,2013-05-11 09:43:00,
2013-05-11 03:53:00,36.0,-99.9,-100.00,NNE,28,1.0,2.0,-999,-99.99,,,-99.99,,2013-05-11 09:53:00,
2013-05-11 04:03:00,37.0,-99.9,-100.00,North,1,4.0,7.0,-999,-99.99,,,-99.99,,2013-05-11 10:03:00,
2013-05-11 04:12:00,37.0,-99.9,-100.00,North,1,4.0,7.0,-999,-99.99,,,-99.99,,2013-05-11 10:12:00,
2013-05-11 04:23:00,38.0,-99.9,-100.00,North,4,7.0,11.0,-999,-99.99,,,-99.99,,2013-05-11 10:23:00,
2013-05-11 04:33:00,37.0,-99.9,-100.00,NNE,24,10.0,12.0,-999,-99.99,,,-99.99,,2013-05-11 10:33:00,
2013-05-11 04:42:00,37.0,-99.9,-100.00,NNE,24,10.0,12.0,-999,-99.99,,,-99.99,,2013-05-11 10:42:00,
2013-05-11 04:53:00,37.0,-99.9,-100.00,NE,38,12.0,16.0,-999,-99.99,,,-99.99,,2013-05-11 10:53:00,
2013-05-11 05:03:00,36.0,-99.9,-100.00,NE,39,9.0,12.0,-999,-99.99,,,-99.99,,2013-05-11 11:03:00,
2013-05-11 05:12:00,36.0,-99.9,-100.00,NE,39,9.0,12.0,-999,-99.99,,,-99.99,,2013-05-11 11:12:00,
2013-05-11 05:22:00,36.0,-99.9,-100.00,NE,41,9.0,11.0,-999,-99.99,,,-99.99,,2013-05-11 11:22:00,
2013-05-11 05:32:00,35.0,-99.9,-100.00,NE,42,8.0,11.0,-999,-99.99,,,-99.99,,2013-05-11 11:32:00,
2013-05-11 05:42:00,35.0,-99.9,-100.00,NE,42,8.0,11.0,-999,-99.99,,,-99.99,,2013-05-11 11:42:00,
2013-05-11 05:52:00,34.0,-99.9,-100.00,NE,36,8.0,9.0,-999,-99.99,,,-99.99,,2013-05-11 11:52:00,
2013-05-11 06:01:00,33.0,-99.9,-100.00,NNE,32,5.0,8.0,-999,-99.99,,,-99.99,,2013-05-11 12:01:00,
2013-05-11 06:12:00,33.0,-99.9,-100.00,NNE,32,5.0,8.0,-999,-99.99,,,-99.99,,2013-05-11 12:12:00,
2013-05-11 06:22:00,33.0,-99.9,-100.00,NNE,19,2.0,7.0,-999,-99.99,,,-99.99,,2013-05-11 12:22:00,
2013-05-11 06:32:00,34.0,-99.9,-100.00,North,11,0.0,1.0,-999,-99.99,,,-99.99,,2013-05-11 12:32:00,
2013-05-11 06:42:00,34.0,-99.9,-100.00,North,11,0.0,1.0,-999,-99.99,,,-99.99,,2013-05-11 12:42:00,
2013-05-11 06:52:00,35.0,-99.9,-100.00,NNE,12,1.0,4.0,-999,-99.99,,,-99.99,,2013-05-11 12:52:00,
2013-05-11 07:02:00,36.0,-99.9,-100.00,NE,39,4.0,7.0,-999,-99.99,,,-99.99,,2013-05-11 13:02:00,
2013-05-11 07:11:00,36.0,-99.9,-100.00,NE,39,4.0,7.0,-999,-99.99,,,-99.99,,2013-05-11 13:11:00,
2013-05-11 07:22:00,38.0,-99.9,-100.00,NNE,25,0.0,2.0,-999,-99.99,,,-99.99,,2013-05-11 13:22:00,
2013-05-11 07:32:00,40.0,-99.9,-100.00,NE,37,0.0,1.0,-999,-99.99,,,-99.99,,2013-05-11 13:32:00,
2013-05-11 08:02:00,41.0,-99.9,-100.00,SW,228,1.0,2.0,-999,-99.99,,,-99.99,,2013-05-11 14:02:00,
2013-05-11 08:32:00,46.0,-99.9,-100.00,WSW,238,1.0,2.0,-999,-99.99,,,-99.99,,2013-05-11 14:32:00,
2013-05-11 08:52:00,45.0,-99.9,-100.00,WSW,240,2.0,2.0,-999,-99.99,,,-99.99,,2013-05-11 14:52:00,
2013-05-11 09:02:00,43.0,-99.9,-100.00,WSW,241,1.0,2.0,-999,-99.99,,,-99.99,,2013-05-11 15:02:00,
2013-05-11 09:12:00,43.0,-99.9,-100.00,WSW,241,1.0,2.0,-999,-99.99,,,-99.99,,2013-05-11 15:12:00,
2013-05-11 09:22:00,43.0,-99.9,-100.00,WNW,296,1.0,2.0,-999,-99.99,,,-99.99,,2013-05-11 15:22:00,
2013-05-11 09:32:00,43.0,-99.9,-100.00,WNW,296,1.0,2.0,-999,-99.99,,,-99.99,,2013-05-11 15:32:00,
2013-05-11 09:43:00,43.0,-99.9,-100.00,WNW,296,1.0,2.0,-999,-99.99,,,-99.99,,2013-05-11 15:43:00,
2013-05-11 10:03:00,43.0,-99.9,-100.00,WNW,302,1.0,2.0,-999,-99.99,,,-99.99,,2013-05-11 16:03:00,
2013-05-11 10:12:00,43.0,-99.9,-100.00,WNW,302,1.0,2.0,-999,-99.99,,,-99.99,,2013-05-11 16:12:00,
2013-05-11 10:23:00,42.0,-99.9,-100.00,WNW,286,2.0,2.0,-999,-99.99,,,-99.99,,2013-05-11 16:23:00,
2013-05-11 10:33:00,42.0,-99.9,-100.00,WNW,295,2.0,4.0,-999,-99.99,,,-99.99,,2013-05-11 16:33:00,
2013-05-11 10:42:00,42.0,-99.9,-100.00,WNW,295,2.0,4.0,-999,-99.99,,,-99.99,,2013-05-11 16:42:00,
2013-05-11 10:53:00,43.0,-99.9,-100.00,NNW,327,2.0,8.0,-999,-99.99,,,-99.99,,2013-05-11 16:53:00,
2013-05-11 11:02:00,44.0,-99.9,-100.00,NW,316,3.0,8.0,-999,-99.99,,,-99.99,,2013-05-11 17:02:00,
2013-05-11 11:12:00,44.0,-99.9,-100.00,NW,316,3.0,8.0,-999,-99.99,,,-99.99,,2013-05-11 17:12:00,
2013-05-11 11:22:00,44.0,-99.9,-100.00,West,278,5.0,8.0,-999,-99.99,,,-99.99,,2013-05-11 17:22:00,
2013-05-11 11:32:00,44.0,-99.9,-100.00,West,278,5.0,8.0,-999,-99.99,,,-99.99,,2013-05-11 17:32:00,
2013-05-11 11:42:00,44.0,-99.9,-100.00,West,278,5.0,8.0,-999,-99.99,,,-99.99,,2013-05-11 17:42:00,
2013-05-11 11:52:00,44.0,-99.9,-100.00,West,274,8.0,12.0,-999,-99.99,,,-99.99,,2013-05-11 17:52:00,
2013-05-11 12:01:00,43.0,-99.9,-100.00,WNW,289,6.0,9.0,-999,-99.99,,,-99.99,,2013-05-11 18:01:00,
2013-05-11 12:12:00,43.0,-99.9,-100.00,WNW,289,6.0,9.0,-999,-99.99,,,-99.99,,2013-05-11 18:12:00,
2013-05-11 12:22:00,44.0,-99.9,-100.00,WNW,295,6.0,11.0,-999,-99.99,,,-99.99,,2013-05-11 18:22:00,
2013-05-11 12:32:00,45.0,-99.9,-100.00,West,280,7.0,14.0,-999,-99.99,,,-99.99,,2013-05-11 18:32:00,
2013-05-11 12:42:00,45.0,-99.9,-100.00,West,280,7.0,14.0,-999,-99.99,,,-99.99,,2013-05-11 18:42:00,
2013-05-11 12:52:00,47.0,-99.9,-100.00,West,269,8.0,14.0,-999,-99.99,,,-99.99,,2013-05-11 18:52:00,
2013-05-11 13:02:00,45.0,-99.9,-100.00,WNW,283,9.0,15.0,-999,-99.99,,,-99.99,,2013-05-11 19:02:00,
2013-05-11 13:11:00,45.0,-99.9,-100.00,WNW,283,9.0,15.0,-999,-99.99,,,-99.99,,2013-05-11 19:11:00,
2013-05-11 13:22:00,44.0,-99.9,-100.00,WNW,298,8.0,14.0,-999,-99.99,,,-99.99,,2013-05-11 19:22:00,
2013-05-11 13:32:00,47.0,-99.9,-100.00,West,275,10.0,18.0,-999,-99.99,,,-99.99,,2013-05-11 19:32:00,
2013-05-11 13:42:00,47.0,-99.9,-100.00,West,275,10.0,18.0,-999,-99.99,,,-99.99,,2013-05-11 19:42:00,
2013-05-11 13:53:00,43.0,-99.9,-100.00,NNW,340,8.0,14.0,-999,-99.99,,,-99.99,,2013-05-11 19:53:00,
2013-05-11 14:02:00,45.0,-99.9,-100.00,NNW,343,8.0,15.0,-999,-99.99,,,-99.99,,2013-05-11 20:02:00,
2013-05-11 14:12:00,45.0,-99.9,-100.00,NNW,343,8.0,15.0,-999,-99.99,,,-99.99,,2013-05-11 20:12:00,
2013-05-11 14:22:00,45.0,-99.9,-100.00,NW,321,9.0,14.0,-999,-99.99,,,-99.99,,2013-05-11 20:22:00,
2013-05-11 14:32:00,43.0,-99.9,-100.00,NNW,341,12.0,19.0,-999,-99.99,,,-99.99,,2013-05-11 20:32:00,
2013-05-11 14:42:00,43.0,-99.9,-100.00,NNW,341,12.0,19.0,-999,-99.99,,,-99.99,,2013-05-11 20:42:00,
2013-05-11 14:53:00,44.0,-99.9,-100.00,NW,316,9.0,14.0,-999,-99.99,,,-99.99,,2013-05-11 20:53:00,
2013-05-11 15:02:00,44.0,-99.9,-100.00,NW,325,10.0,24.0,-999,-99.99,,,-99.99,,2013-05-11 21:02:00,
2013-05-11 15:12:00,44.0,-99.9,-100.00,NW,325,10.0,24.0,-999,-99.99,,,-99.99,,2013-05-11 21:12:00,
2013-05-11 15:22:00,44.0,-99.9,-100.00,NW,315,11.0,18.0,-999,-99.99,,,-99.99,,2013-05-11 21:22:00,
2013-05-11 15:33:00,45.0,-99.9,-100.00,NW,321,11.0,22.0,-999,-99.99,,,-99.99,,2013-05-11 21:33:00,
2013-05-11 15:43:00,45.0,-99.9,-100.00,NW,321,11.0,22.0,-999,-99.99,,,-99.99,,2013-05-11 21:43:00,
2013-05-11 15:53:00,46.0,-99.9,-100.00,NW,307,12.0,24.0,-999,-99.99,,,-99.99,,2013-05-11 21:53:00,
2013-05-11 16:03:00,44.0,-99.9,-100.00,NNW,335,11.0,21.0,-999,-99.99,,,-99.99,,2013-05-11 22:03:00,
2013-05-11 16:13:00,44.0,-99.9,-100.00,NNW,335,11.0,21.0,-999,-99.99,,,-99.99,,2013-05-11 22:13:00,
2013-05-11 16:23:00,44.0,-99.9,-100.00,NW,324,12.0,21.0,-999,-99.99,,,-99.99,,2013-05-11 22:23:00,
2013-05-11 16:33:00,46.0,-99.9,-100.00,NW,326,10.0,21.0,-999,-99.99,,,-99.99,,2013-05-11 22:33:00,
2013-05-11 16:43:00,46.0,-99.9,-100.00,NW,326,10.0,21.0,-999,-99.99,,,-99.99,,2013-05-11 22:43:00,
2013-05-11 16:52:00,44.0,-99.9,-100.00,NNW,340,12.0,19.0,-999,-99.99,,,-99.99,,2013-05-11 22:52:00,
2013-05-11 17:02:00,44.0,-99.9,-100.00,NNW,339,16.0,24.0,-999,-99.99,,,-99.99,,2013-05-11 23:02:00,
2013-05-11 17:12:00,44.0,-99.9,-100.00,NNW,339,16.0,24.0,-999,-99.99,,,-99.99,,2013-05-11 23:12:00,
2013-05-11 17:22:00,44.0,-99.9,-100.00,NNW,332,14.0,22.0,-999,-99.99,,,-99.99,,2013-05-11 23:22:00,
2013-05-11 17:32:00,45.0,-99.9,-100.00,NNW,327,14.0,22.0,-999,-99.99,,,-99.99,,2013-05-11 23:32:00,
2013-05-11 17:42:00,45.0,-99.9,-100.00,NNW,327,14.0,22.0,-999,-99.99,,,-99.99,,2013-05-11 23:42:00,
2013-05-11 17:52:00,44.0,-99.9,-100.00,NNW,338,16.0,24.0,-999,-99.99,,,-99.99,,2013-05-11 23:52:00,
2013-05-11 18:01:00,44.0,-99.9,-100.00,NNW,327,13.0,21.0,-999,-99.99,,,-99.99,,2013-05-12 00:01:00,
2013-05-11 18:12:00,44.0,-99.9,-100.00,NNW,327,13.0,21.0,-999,-99.99,,,-99.99,,2013-05-12 00:12:00,
2013-05-11 18:21:00,43.0,-99.9,-100.00,NNW,340,12.0,21.0,-999,-99.99,,,-99.99,,2013-05-12 00:21:00,
2013-05-11 18:32:00,43.0,-99.9,-100.00,NNW,340,12.0,21.0,-999,-99.99,,,-99.99,,2013-05-12 00:32:00,
2013-05-11 18:42:00,43.0,-99.9,-100.00,NNW,340,12.0,21.0,-999,-99.99,,,-99.99,,2013-05-12 00:42:00,
2013-05-11 18:52:00,42.0,-99.9,-100.00,NW,323,15.0,29.0,-999,-99.99,,,-99.99,,2013-05-12 00:52:00,
2013-05-11 19:01:00,43.0,-99.9,-100.00,NW,326,9.0,21.0,-999,-99.99,,,-99.99,,2013-05-12 01:01:00,
2013-05-11 19:11:00,43.0,-99.9,-100.00,NW,326,9.0,21.0,-999,-99.99,,,-99.99,,2013-05-12 01:11:00,
2013-05-11 19:21:00,43.0,-99.9,-100.00,NNW,329,14.0,22.0,-999,-99.99,,,-99.99,,2013-05-12 01:21:00,
2013-05-11 19:32:00,42.0,-99.9,-100.00,NNW,334,15.0,26.0,-999,-99.99,,,-99.99,,2013-05-12 01:32:00,
2013-05-11 19:42:00,42.0,-99.9,-100.00,NNW,334,15.0,26.0,-999,-99.99,,,-99.99,,2013-05-12 01:42:00,
2013-05-11 19:52:00,42.0,-99.9,-100.00,NNW,331,12.0,19.0,-999,-99.99,,,-99.99,,2013-05-12 01:52:00,
2013-05-11 20:02:00,42.0,-99.9,-100.00,NW,310,10.0,19.0,-999,-99.99,,,-99.99,,2013-05-12 02:02:00,
2013-05-11 20:12:00,42.0,-99.9,-100.00,NW,310,10.0,19.0,-999,-99.99,,,-99.99,,2013-05-12 02:12:00,
2013-05-11 20:22:00,42.0,-99.9,-100.00,WNW,293,8.0,16.0,-999,-99.99,,,-99.99,,2013-05-12 02:22:00,
2013-05-11 20:32:00,41.0,-99.9,-100.00,NW,310,9.0,14.0,-999,-99.99,,,-99.99,,2013-05-12 02:32:00,
2013-05-11 20:42:00,41.0,-99.9,-100.00,NW,310,9.0,14.0,-999,-99.99,,,-99.99,,2013-05-12 02:42:00,
2013-05-11 20:52:00,41.0,-99.9,-100.00,NW,304,8.0,14.0,-999,-99.99,,,-99.99,,2013-05-12 02:52:00,
2013-05-11 21:02:00,41.0,-99.9,-100.00,WNW,296,8.0,19.0,-999,-99.99,,,-99.99,,2013-05-12 03:02:00,
2013-05-11 21:11:00,41.0,-99.9,-100.00,WNW,296,8.0,19.0,-999,-99.99,,,-99.99,,2013-05-12 03:11:00,
2013-05-11 21:22:00,41.0,-99.9,-100.00,NW,308,9.0,15.0,-999,-99.99,,,-99.99,,2013-05-12 03:22:00,
2013-05-11 21:33:00,40.0,-99.9,-100.00,NNW,342,12.0,18.0,-999,-99.99,,,-99.99,,2013-05-12 03:33:00,
2013-05-11 21:43:00,40.0,-99.9,-100.00,NNW,342,12.0,18.0,-999,-99.99,,,-99.99,,2013-05-12 03:43:00,
2013-05-11 21:53:00,40.0,-99.9,-100.00,North,352,13.0,18.0,-999,-99.99,,,-99.99,,2013-05-12 03:53:00,
2013-05-11 22:03:00,-999.0,-99.9,-100.00,NW,319,10.0,18.0,-999,-99.99,,,-99.99,,2013-05-12 04:03:00,
2013-05-11 22:12:00,41.0,-99.9,-100.00,NW,319,10.0,18.0,-999,-99.99,,,-99.99,,2013-05-12 04:12:00,
2013-05-11 22:23:00,40.0,-99.9,-100.00,WNW,293,9.0,19.0,-999,-99.99,,,-99.99,,2013-05-12 04:23:00,
2013-05-11 22:33:00,41.0,-99.9,-100.00,West,278,9.0,16.0,-999,-99.99,,,-99.99,,2013-05-12 04:33:00,
2013-05-11 22:43:00,41.0,-99.9,-100.00,West,278,9.0,16.0,-999,-99.99,,,-99.99,,2013-05-12 04:43:00,
2013-05-11 22:52:00,40.0,-99.9,-100.00,NW,324,8.0,16.0,-999,-99.99,,,-99.99,,2013-05-12 04:52:00,
2013-05-11 23:02:00,40.0,-99.9,-100.00,North,351,9.0,15.0,-999,-99.99,,,-99.99,,2013-05-12 05:02:00,
2013-05-11 23:12:00,40.0,-99.9,-100.00,North,351,9.0,15.0,-999,-99.99,,,-99.99,,2013-05-12 05:12:00,
2013-05-11 23:22:00,40.0,-99.9,-100.00,NNW,328,11.0,15.0,-999,-99.99,,,-99.99,,2013-05-12 05:22:00,
2013-05-11 23:32:00,40.0,-99.9,-100.00,NW,326,10.0,15.0,-999,-99.99,,,-99.99,,2013-05-12 05:32:00,
2013-05-11 23:42:00,40.0,-99.9,-100.00,NW,326,10.0,15.0,-999,-99.99,,,-99.99,,2013-05-12 05:42:00,
2013-05-11 23:52:00,40.0,-99.9,-100.00,NNW,330,11.0,18.0,-999,-99.99,,,-99.99,,2013-05-12 05:52:00,